createdAt,value
2019-04-30T00:01:59.880Z,102586.98
2019-04-30T00:04:37.074Z,102588.30
2019-04-30T00:07:01.174Z,102585.09
2019-04-30T00:09:31.703Z,102592.19
2019-04-30T00:12:01.308Z,102584.41
2019-04-30T00:14:37.143Z,102585.83
2019-04-30T00:17:00.568Z,102577.94
2019-04-30T00:19:28.666Z,102579.68
2019-04-30T00:22:00.093Z,102574.84
2019-04-30T00:24:26.525Z,102577.06
2019-04-30T00:26:56.412Z,102575.33
2019-04-30T00:29:30.200Z,102570.50
2019-04-30T00:31:59.281Z,102568.72
2019-04-30T00:34:26.002Z,102565.84
2019-04-30T00:36:55.865Z,102562.67
2019-04-30T00:39:27.038Z,102563.11
2019-04-30T00:41:54.678Z,102559.09
2019-04-30T00:44:24.894Z,102562.20
2019-04-30T00:46:55.779Z,102564.53
2019-04-30T00:49:24.870Z,102555.96
2019-04-30T00:51:56.671Z,102554.91
2019-04-30T00:54:29.361Z,102550.30
2019-04-30T00:56:57.486Z,102553.64
2019-04-30T00:59:25.030Z,102558.36
2019-04-30T01:02:30.796Z,102553.39
2019-04-30T01:05:00.169Z,102555.88
2019-04-30T01:07:26.469Z,102553.72
2019-04-30T01:09:55.280Z,102544.17
2019-04-30T01:12:29.013Z,102538.99
2019-04-30T01:14:53.575Z,102535.37
2019-04-30T01:17:21.461Z,102542.71
2019-04-30T01:19:51.182Z,102536.75
2019-04-30T01:22:27.793Z,102532.45
2019-04-30T01:24:49.851Z,102531.86
2019-04-30T01:27:19.096Z,102532.72
2019-04-30T01:29:48.717Z,102533.52
2019-04-30T01:32:20.827Z,102534.96
2019-04-30T01:34:49.831Z,102527.03
2019-04-30T01:37:20.255Z,102533.77
2019-04-30T01:39:49.227Z,102532.27
2019-04-30T01:42:18.517Z,102529.65
2019-04-30T01:44:53.531Z,102529.41
2019-04-30T01:47:25.354Z,102530.18
2019-04-30T01:49:55.945Z,102531.00
2019-04-30T01:52:22.201Z,102533.45
2019-04-30T01:54:50.829Z,102529.55
2019-04-30T01:57:50.938Z,102525.99
2019-04-30T02:00:29.315Z,102520.88
2019-04-30T02:03:00.516Z,102528.55
2019-04-30T02:05:29.802Z,102529.99
2019-04-30T02:07:59.512Z,102526.62
2019-04-30T02:10:29.739Z,102524.79
2019-04-30T02:12:59.103Z,102524.11
2019-04-30T02:15:29.441Z,102527.26
2019-04-30T02:17:59.597Z,102522.47
2019-04-30T02:20:28.880Z,102520.43
2019-04-30T02:22:58.777Z,102518.70
2019-04-30T02:25:29.383Z,102520.52
2019-04-30T02:27:59.007Z,102521.11
2019-04-30T02:30:30.493Z,102524.38
2019-04-30T02:33:00.114Z,102531.39
2019-04-30T02:35:43.391Z,102516.72
2019-04-30T02:38:19.850Z,102519.05
2019-04-30T02:40:49.850Z,102513.55
2019-04-30T02:43:20.395Z,102518.27
2019-04-30T02:45:51.006Z,102517.03
2019-04-30T02:48:21.637Z,102515.34
2019-04-30T02:50:51.016Z,102516.80
2019-04-30T02:54:20.269Z,102518.08
2019-04-30T02:56:59.554Z,102513.67
2019-04-30T02:59:26.710Z,102510.46
2019-04-30T03:01:54.678Z,102516.34
2019-04-30T03:04:22.517Z,102515.20
2019-04-30T03:06:50.555Z,102507.09
2019-04-30T03:09:20.146Z,102505.08
2019-04-30T03:11:49.896Z,102511.59
2019-04-30T03:14:19.885Z,102502.48
2019-04-30T03:17:00.331Z,102515.31
2019-04-30T03:19:46.124Z,102504.56
2019-04-30T03:22:16.856Z,102503.08
2019-04-30T03:24:44.563Z,102506.52
2019-04-30T03:27:12.360Z,102508.63
2019-04-30T03:29:41.199Z,102502.13
2019-04-30T03:32:13.361Z,102501.16
2019-04-30T03:34:41.847Z,102504.28
2019-04-30T03:37:09.935Z,102503.01
2019-04-30T03:39:40.020Z,102501.31
2019-04-30T03:42:09.919Z,102500.17
2019-04-30T03:44:40.167Z,102495.55
2019-04-30T03:47:07.225Z,102495.42
2019-04-30T03:49:35.206Z,102494.64
2019-04-30T03:52:03.010Z,102500.11
2019-04-30T03:54:30.729Z,102494.73
2019-04-30T03:57:00.898Z,102498.87
2019-04-30T03:59:30.094Z,102496.33
2019-04-30T04:02:33.040Z,102501.22
2019-04-30T04:05:11.011Z,102494.66
2019-04-30T04:07:46.209Z,102498.72
2019-04-30T04:10:40.371Z,102496.61
2019-04-30T04:13:10.366Z,102499.11
2019-04-30T04:15:39.978Z,102504.80
2019-04-30T04:18:10.620Z,102503.75
2019-04-30T04:20:39.928Z,102506.15
2019-04-30T04:23:09.495Z,102509.34
2019-04-30T04:25:39.697Z,102507.55
2019-04-30T04:28:06.583Z,102511.26
2019-04-30T04:30:34.676Z,102506.93
2019-04-30T04:33:02.461Z,102513.97
2019-04-30T04:35:30.427Z,102510.03
2019-04-30T04:38:00.414Z,102509.15
2019-04-30T04:40:30.299Z,102512.72
2019-04-30T04:43:00.049Z,102510.23
2019-04-30T04:45:30.352Z,102513.06
2019-04-30T04:47:59.763Z,102511.26
2019-04-30T04:50:30.030Z,102511.02
2019-04-30T04:52:59.276Z,102512.68
2019-04-30T04:55:26.611Z,102510.88
2019-04-30T04:57:54.683Z,102510.75
2019-04-30T05:00:22.535Z,102509.97
2019-04-30T05:03:04.813Z,102514.58
2019-04-30T05:05:32.730Z,102512.92
2019-04-30T05:08:00.528Z,102513.39
2019-04-30T05:10:29.212Z,102513.86
2019-04-30T05:12:59.098Z,102521.10
2019-04-30T05:15:26.858Z,102510.81
2019-04-30T05:17:54.749Z,102514.72
2019-04-30T05:20:22.461Z,102513.71
2019-04-30T05:22:50.180Z,102511.92
2019-04-30T05:25:18.673Z,102521.05
2019-04-30T05:27:46.606Z,102514.00
2019-04-30T05:30:14.318Z,102508.86
2019-04-30T05:32:42.161Z,102511.66
2019-04-30T05:35:10.600Z,102509.22
2019-04-30T05:37:38.597Z,102515.08
2019-04-30T05:40:09.129Z,102518.42
2019-04-30T05:42:38.700Z,102508.82
2019-04-30T05:45:09.129Z,102518.94
2019-04-30T05:47:38.729Z,102519.32
2019-04-30T05:50:08.950Z,102521.28
2019-04-30T05:52:39.498Z,102516.90
2019-04-30T05:55:08.535Z,102517.98
2019-04-30T05:57:36.581Z,102510.84
2019-04-30T06:00:05.728Z,102511.81
2019-04-30T06:02:34.272Z,102513.73
2019-04-30T06:05:02.293Z,102511.14
2019-04-30T06:07:30.065Z,102509.52
2019-04-30T06:10:06.752Z,102511.30
2019-04-30T06:13:00.134Z,102525.45
2019-04-30T06:15:41.625Z,102516.88
2019-04-30T06:18:13.566Z,102515.27
2019-04-30T06:20:39.043Z,102518.73
2019-04-30T06:23:06.947Z,102521.66
2019-04-30T06:25:54.887Z,102516.68
2019-04-30T06:28:04.734Z,102522.51
2019-04-30T06:30:33.108Z,102514.39
2019-04-30T06:33:01.252Z,102516.19
2019-04-30T06:35:29.565Z,102515.47
2019-04-30T06:37:58.959Z,102518.69
2019-04-30T06:40:29.243Z,102519.64
2019-04-30T06:43:00.397Z,102515.20
2019-04-30T06:45:29.026Z,102525.70
2019-04-30T06:47:58.789Z,102521.41
2019-04-30T06:50:26.713Z,102527.77
2019-04-30T06:52:58.748Z,102526.12
2019-04-30T06:55:25.835Z,102524.24
2019-04-30T06:57:53.629Z,102527.02
2019-04-30T07:00:35.700Z,102523.55
2019-04-30T07:03:04.361Z,102525.84
2019-04-30T07:05:32.086Z,102524.09
2019-04-30T07:08:19.013Z,102526.50
2019-04-30T07:10:55.702Z,102527.69
2019-04-30T07:13:24.246Z,102527.61
2019-04-30T07:15:51.977Z,102527.33
2019-04-30T07:18:19.979Z,102521.64
2019-04-30T07:20:48.647Z,102519.20
2019-04-30T07:23:18.693Z,102523.56
2019-04-30T07:25:46.342Z,102520.92
2019-04-30T07:28:14.228Z,102523.42
2019-04-30T07:30:41.961Z,102521.28
2019-04-30T07:33:09.858Z,102527.84
2019-04-30T07:35:39.767Z,102520.30
2019-04-30T07:38:09.214Z,102523.44
2019-04-30T07:40:38.935Z,102523.02
2019-04-30T07:43:08.890Z,102528.78
2019-04-30T07:45:36.217Z,102531.72
2019-04-30T07:48:04.068Z,102535.13
2019-04-30T07:50:32.474Z,102530.41
2019-04-30T07:53:05.740Z,102528.67
2019-04-30T07:55:30.733Z,102537.96
2019-04-30T07:57:59.112Z,102541.40
2019-04-30T08:00:30.998Z,102536.49
2019-04-30T08:03:19.963Z,102545.09
2019-04-30T08:06:00.188Z,102543.97
2019-04-30T08:08:30.174Z,102542.41
2019-04-30T08:10:59.175Z,102549.50
2019-04-30T08:13:32.013Z,102549.56
2019-04-30T08:15:59.659Z,102554.97
2019-04-30T08:18:29.508Z,102559.66
2019-04-30T08:20:58.679Z,102556.81
2019-04-30T08:23:34.990Z,102556.31
2019-04-30T08:25:58.630Z,102559.56
2019-04-30T08:28:30.163Z,102562.95
2019-04-30T08:30:58.943Z,102564.66
2019-04-30T08:33:29.076Z,102560.77
2019-04-30T08:35:56.744Z,102566.91
2019-04-30T08:38:24.639Z,102571.31
2019-04-30T08:40:56.187Z,102564.30
2019-04-30T08:43:22.428Z,102567.87
2019-04-30T08:45:50.479Z,102570.81
2019-04-30T08:48:18.992Z,102568.12
2019-04-30T08:50:46.878Z,102571.24
2019-04-30T08:53:26.754Z,102565.86
2019-04-30T08:55:44.610Z,102570.42
2019-04-30T08:58:15.067Z,102566.95
2019-04-30T09:00:42.102Z,102569.56
2019-04-30T09:03:09.933Z,102573.27
2019-04-30T09:05:55.867Z,102580.42
2019-04-30T09:08:23.863Z,102580.45
2019-04-30T09:10:51.617Z,102575.19
2019-04-30T09:13:19.644Z,102577.06
2019-04-30T09:15:49.271Z,102579.34
2019-04-30T09:18:19.003Z,102581.86
2019-04-30T09:20:46.988Z,102577.72
2019-04-30T09:23:14.865Z,102575.14
2019-04-30T09:25:42.634Z,102577.11
2019-04-30T09:28:10.540Z,102575.45
2019-04-30T09:30:38.711Z,102579.74
2019-04-30T09:33:06.593Z,102578.81
2019-04-30T09:35:35.450Z,102578.57
2019-04-30T09:38:03.145Z,102581.47
2019-04-30T09:40:32.616Z,102586.49
2019-04-30T09:43:00.630Z,102585.35
2019-04-30T09:45:28.665Z,102584.88
2019-04-30T09:47:56.509Z,102579.74
2019-04-30T09:50:24.517Z,102578.80
2019-04-30T09:52:52.346Z,102584.79
2019-04-30T09:55:20.553Z,102578.81
2019-04-30T09:57:48.860Z,102580.43
2019-04-30T10:00:19.328Z,102584.23
2019-04-30T10:02:48.716Z,102576.98
2019-04-30T10:05:18.760Z,102579.29
2019-04-30T10:07:46.883Z,102575.28
2019-04-30T10:10:18.843Z,102573.36
2019-04-30T10:12:49.176Z,102564.89
2019-04-30T10:15:30.836Z,102568.53
2019-04-30T10:18:00.429Z,102564.22
2019-04-30T10:20:40.646Z,102563.28
2019-04-30T10:23:10.318Z,102563.05
2019-04-30T10:25:38.946Z,102551.29
2019-04-30T10:28:06.859Z,102552.31
2019-04-30T10:30:35.655Z,102551.89
2019-04-30T10:33:04.928Z,102548.06
2019-04-30T10:35:32.739Z,102544.75
2019-04-30T10:38:00.422Z,102542.16
2019-04-30T10:40:28.716Z,102536.44
2019-04-30T10:42:58.562Z,102537.18
2019-04-30T10:45:28.649Z,102535.16
2019-04-30T10:47:56.171Z,102533.81
2019-04-30T10:50:25.782Z,102527.49
2019-04-30T10:52:53.628Z,102527.38
2019-04-30T10:55:21.322Z,102529.44
2019-04-30T10:57:49.523Z,102525.59
2019-04-30T11:00:20.175Z,102522.54
2019-04-30T11:02:49.641Z,102531.22
2019-04-30T11:05:18.806Z,102524.74
2019-04-30T11:07:49.428Z,102520.63
2019-04-30T11:10:18.913Z,102517.67
2019-04-30T11:12:46.823Z,102517.19
2019-04-30T11:15:14.975Z,102523.85
2019-04-30T11:17:42.869Z,102514.13
2019-04-30T11:20:11.339Z,102522.97
2019-04-30T11:22:39.610Z,102516.88
2019-04-30T11:25:09.777Z,102523.53
2019-04-30T11:27:40.192Z,102516.72
2019-04-30T11:30:18.499Z,102520.97
2019-04-30T11:32:37.977Z,102517.77
2019-04-30T11:35:06.239Z,102516.16
2019-04-30T11:37:33.933Z,102514.78
2019-04-30T11:40:01.686Z,102518.08
2019-04-30T11:42:32.179Z,102516.77
2019-04-30T11:44:59.872Z,102508.70
2019-04-30T11:47:35.781Z,102516.58
2019-04-30T11:50:08.122Z,102508.91
2019-04-30T11:52:37.775Z,102512.74
2019-04-30T11:55:09.673Z,102504.74
2019-04-30T11:57:39.580Z,102510.07
2019-04-30T12:00:10.822Z,102511.09
2019-04-30T12:02:40.629Z,102500.67
2019-04-30T12:05:10.200Z,102496.66
2019-04-30T12:07:59.759Z,102493.14
2019-04-30T12:10:39.196Z,102501.66
2019-04-30T12:13:22.930Z,102490.20
2019-04-30T12:15:51.470Z,102486.61
2019-04-30T12:18:19.242Z,102482.28
2019-04-30T12:20:47.065Z,102482.34
2019-04-30T12:23:15.020Z,102482.27
2019-04-30T12:25:43.184Z,102480.17
2019-04-30T12:28:10.995Z,102477.77
2019-04-30T12:30:40.551Z,102472.23
2019-04-30T12:33:09.091Z,102482.36
2019-04-30T12:35:36.990Z,102476.77
2019-04-30T12:38:04.682Z,102466.20
2019-04-30T12:40:32.580Z,102471.98
2019-04-30T12:43:00.286Z,102470.17
2019-04-30T12:45:29.405Z,102466.37
2019-04-30T12:48:01.252Z,102461.77
2019-04-30T12:50:39.306Z,102460.13
2019-04-30T12:53:10.370Z,102448.46
2019-04-30T12:55:46.698Z,102452.67
2019-04-30T12:58:14.602Z,102448.61
2019-04-30T13:00:42.524Z,102444.08
2019-04-30T13:03:10.295Z,102445.16
2019-04-30T13:05:39.574Z,102450.76
2019-04-30T13:08:09.583Z,102446.78
2019-04-30T13:10:37.987Z,102441.68
2019-04-30T13:13:06.633Z,102437.73
2019-04-30T13:15:34.720Z,102438.00
2019-04-30T13:18:02.598Z,102433.71
2019-04-30T13:20:30.402Z,102438.23
2019-04-30T13:22:59.727Z,102433.05
2019-04-30T13:25:34.173Z,102434.77
2019-04-30T13:28:02.525Z,102429.77
2019-04-30T13:30:31.044Z,102434.80
2019-04-30T13:33:05.522Z,102432.03
2019-04-30T13:35:33.540Z,102428.03
2019-04-30T13:38:22.935Z,102427.95
2019-04-30T13:41:05.683Z,102430.77
2019-04-30T13:44:09.645Z,102427.33
2019-04-30T13:46:39.558Z,102433.91
2019-04-30T13:49:07.509Z,102425.34
2019-04-30T13:51:35.446Z,102423.69
2019-04-30T13:54:03.541Z,102424.16
2019-04-30T13:56:31.289Z,102418.49
2019-04-30T13:58:59.028Z,102419.97
2019-04-30T14:01:29.250Z,102421.56
2019-04-30T14:04:08.890Z,102418.86
2019-04-30T14:06:41.578Z,102417.33
2019-04-30T14:09:18.810Z,102418.28
2019-04-30T14:11:46.622Z,102417.11
2019-04-30T14:14:14.551Z,102412.55
2019-04-30T14:16:43.913Z,102408.37
2019-04-30T14:19:13.326Z,102413.53
2019-04-30T14:21:41.074Z,102404.48
2019-04-30T14:24:09.452Z,102407.18
2019-04-30T14:26:39.113Z,102405.38
2019-04-30T14:29:07.205Z,102405.45
2019-04-30T14:31:34.973Z,102407.99
2019-04-30T14:34:02.761Z,102407.27
2019-04-30T14:36:30.838Z,102406.95
2019-04-30T14:39:13.087Z,102403.52
2019-04-30T14:41:31.791Z,102402.20
2019-04-30T14:44:04.610Z,102402.37
2019-04-30T14:47:00.071Z,102392.98
2019-04-30T14:50:01.243Z,102397.27
2019-04-30T14:52:19.356Z,102395.42
2019-04-30T14:54:58.791Z,102402.56
2019-04-30T14:57:44.925Z,102396.45
2019-04-30T15:00:36.113Z,102392.80
2019-04-30T15:03:09.478Z,102388.52
2019-04-30T15:05:48.196Z,102386.50
2019-04-30T15:08:08.886Z,102391.23
2019-04-30T15:10:36.755Z,102387.04
2019-04-30T15:13:04.748Z,102390.78
2019-04-30T15:15:32.522Z,102384.40
2019-04-30T15:18:00.485Z,102386.88
2019-04-30T15:20:29.651Z,102384.32
2019-04-30T15:23:29.582Z,102387.81
2019-04-30T15:25:58.649Z,102387.31
2019-04-30T15:28:32.515Z,102387.15
2019-04-30T15:30:56.359Z,102378.75
2019-04-30T15:34:02.939Z,102386.44
2019-04-30T15:36:29.330Z,102382.75
2019-04-30T15:39:02.241Z,102376.67
2019-04-30T15:41:31.033Z,102376.42
2019-04-30T15:43:58.999Z,102377.27
2019-04-30T15:46:27.077Z,102369.36
2019-04-30T15:48:54.854Z,102374.83
2019-04-30T15:51:22.726Z,102367.63
2019-04-30T15:53:50.468Z,102366.59
2019-04-30T15:56:19.273Z,102361.63
2019-04-30T15:59:08.897Z,102362.31
2019-04-30T16:01:37.721Z,102366.13
2019-04-30T16:04:10.077Z,102355.98
2019-04-30T16:06:38.485Z,102349.03
2019-04-30T16:09:09.527Z,102350.39
2019-04-30T16:12:04.887Z,102353.45
2019-04-30T16:14:37.165Z,102356.80
2019-04-30T16:17:15.237Z,102361.38
2019-04-30T16:19:43.217Z,102356.08
2019-04-30T16:22:10.978Z,102357.42
2019-04-30T16:24:38.808Z,102356.91
2019-04-30T16:27:06.525Z,102349.73
2019-04-30T16:29:34.389Z,102350.62
2019-04-30T16:32:02.143Z,102341.59
2019-04-30T16:34:30.505Z,102345.31
2019-04-30T16:37:00.442Z,102341.87
2019-04-30T16:39:28.872Z,102342.55
2019-04-30T16:41:56.779Z,102341.03
2019-04-30T16:44:25.186Z,102348.44
2019-04-30T16:46:53.045Z,102338.37
2019-04-30T16:49:20.942Z,102327.11
2019-04-30T16:51:50.117Z,102336.13
2019-04-30T16:54:18.607Z,102329.48
2019-04-30T16:56:49.641Z,102332.42
2019-04-30T16:59:20.494Z,102327.96
2019-04-30T17:01:57.551Z,102331.79
2019-04-30T17:04:24.225Z,102335.75
2019-04-30T17:07:03.750Z,102327.50
2019-04-30T17:09:37.554Z,102328.60
2019-04-30T17:12:17.087Z,102326.23
2019-04-30T17:14:44.989Z,102329.95
2019-04-30T17:17:14.578Z,102326.14
2019-04-30T17:19:42.561Z,102330.17
2019-04-30T17:22:10.426Z,102319.03
2019-04-30T17:24:39.400Z,102322.52
2019-04-30T17:27:18.673Z,102317.58
2019-04-30T17:29:39.030Z,102321.23
2019-04-30T17:32:08.398Z,102318.34
2019-04-30T17:34:38.837Z,102316.55
2019-04-30T17:37:06.413Z,102314.98
2019-04-30T17:39:34.329Z,102317.48
2019-04-30T17:42:02.213Z,102319.84
2019-04-30T17:44:29.990Z,102308.16
2019-04-30T17:46:59.972Z,102311.05
2019-04-30T17:49:27.572Z,102312.08
2019-04-30T17:51:55.441Z,102313.81
2019-04-30T17:54:23.173Z,102315.19
2019-04-30T17:56:51.176Z,102316.22
2019-04-30T17:59:18.930Z,102322.02
2019-04-30T18:01:52.927Z,102313.72
2019-04-30T18:04:22.272Z,102312.20
2019-04-30T18:06:50.661Z,102318.47
2019-04-30T18:09:19.644Z,102311.16
2019-04-30T18:11:49.430Z,102319.03
2019-04-30T18:14:18.713Z,102315.63
2019-04-30T18:16:48.488Z,102314.52
2019-04-30T18:19:38.655Z,102316.09
2019-04-30T18:22:11.145Z,102313.61
2019-04-30T18:25:07.345Z,102313.78
2019-04-30T18:27:46.170Z,102314.12
2019-04-30T18:30:16.690Z,102312.09
2019-04-30T18:32:44.400Z,102318.20
2019-04-30T18:35:12.116Z,102316.44
2019-04-30T18:37:41.976Z,102313.55
2019-04-30T18:40:09.884Z,102311.17
2019-04-30T18:42:39.489Z,102308.77
2019-04-30T18:45:09.148Z,102313.42
2019-04-30T18:47:37.398Z,102303.32
2019-04-30T18:50:09.301Z,102310.25
2019-04-30T18:52:37.676Z,102310.38
2019-04-30T18:55:05.904Z,102311.77
2019-04-30T18:57:33.949Z,102315.78
2019-04-30T19:00:01.876Z,102316.46
2019-04-30T19:02:29.584Z,102311.82
2019-04-30T19:04:59.440Z,102316.77
2019-04-30T19:07:32.976Z,102314.74
2019-04-30T19:10:38.792Z,102310.39
2019-04-30T19:13:24.411Z,102314.72
2019-04-30T19:16:30.450Z,102311.44
2019-04-30T19:19:05.583Z,102315.18
2019-04-30T19:21:34.231Z,102313.27
2019-04-30T19:24:02.123Z,102315.22
2019-04-30T19:26:31.832Z,102316.70
2019-04-30T19:29:01.564Z,102310.43
2019-04-30T19:31:29.651Z,102316.61
2019-04-30T19:33:58.856Z,102326.38
2019-04-30T19:36:34.939Z,102318.94
2019-04-30T19:38:56.474Z,102319.78
2019-04-30T19:41:24.300Z,102325.84
2019-04-30T19:43:52.026Z,102326.18
2019-04-30T19:46:19.859Z,102321.90
2019-04-30T19:48:50.512Z,102320.95
2019-04-30T19:51:19.759Z,102316.16
2019-04-30T19:53:48.946Z,102319.22
2019-04-30T19:56:18.296Z,102315.25
2019-04-30T19:58:59.194Z,102318.73
2019-04-30T20:01:17.352Z,102311.81
2019-04-30T20:03:45.432Z,102308.81
2019-04-30T20:06:13.243Z,102310.86
2019-04-30T20:08:41.154Z,102316.23
2019-04-30T20:11:09.317Z,102306.78
2019-04-30T20:13:40.303Z,102301.72
2019-04-30T20:16:09.597Z,102312.94
2019-04-30T20:18:39.023Z,102309.05
2019-04-30T20:21:11.136Z,102306.41
2019-04-30T20:23:39.013Z,102297.92
2019-04-30T20:26:06.975Z,102304.64
2019-04-30T20:28:41.545Z,102302.81
2019-04-30T20:31:04.379Z,102297.70
2019-04-30T20:33:32.221Z,102298.02
2019-04-30T20:35:59.947Z,102299.33
2019-04-30T20:38:45.048Z,102295.53
2019-04-30T20:41:12.771Z,102295.13
2019-04-30T20:43:40.459Z,102299.84
2019-04-30T20:46:08.681Z,102295.97
2019-04-30T20:48:36.586Z,102297.98
2019-04-30T20:51:04.286Z,102294.10
2019-04-30T20:53:32.101Z,102295.31
2019-04-30T20:55:59.793Z,102287.62
2019-04-30T20:58:27.615Z,102287.37
2019-04-30T21:01:03.487Z,102281.68
2019-04-30T21:03:25.247Z,102283.86
2019-04-30T21:05:53.180Z,102277.71
2019-04-30T21:08:20.888Z,102274.88
2019-04-30T21:10:50.330Z,102281.25
2019-04-30T21:13:19.374Z,102270.25
2019-04-30T21:15:49.467Z,102278.31
2019-04-30T21:18:17.057Z,102274.10
2019-04-30T21:20:46.610Z,102270.69
2019-04-30T21:23:14.515Z,102274.20
2019-04-30T21:25:42.294Z,102266.17
2019-04-30T21:28:10.126Z,102269.70
2019-04-30T21:30:38.014Z,102258.79
2019-04-30T21:33:14.796Z,102261.95
2019-04-30T21:35:50.713Z,102258.48
2019-04-30T21:38:19.423Z,102257.67
2019-04-30T21:40:49.142Z,102259.31
2019-04-30T21:43:17.108Z,102257.63
2019-04-30T21:45:44.826Z,102260.05
2019-04-30T21:48:12.569Z,102265.05
2019-04-30T21:50:40.499Z,102257.13
2019-04-30T21:53:09.878Z,102266.70
2019-04-30T21:55:39.817Z,102262.67
2019-04-30T21:58:09.556Z,102264.59
2019-04-30T22:00:55.951Z,102253.80
2019-04-30T22:03:23.957Z,102254.11
2019-04-30T22:05:53.297Z,102256.44
2019-04-30T22:08:20.988Z,102255.83
2019-04-30T22:10:48.901Z,102252.88
2019-04-30T22:13:18.392Z,102256.48
2019-04-30T22:15:46.234Z,102250.34
2019-04-30T22:18:14.155Z,102250.53
2019-04-30T22:20:41.867Z,102250.80
2019-04-30T22:23:09.592Z,102253.61
2019-04-30T22:25:39.171Z,102257.75
2019-04-30T22:28:08.623Z,102249.41
2019-04-30T22:30:38.575Z,102249.41
2019-04-30T22:33:06.504Z,102245.45
2019-04-30T22:35:58.804Z,102243.59
2019-04-30T22:38:30.391Z,102240.95
2019-04-30T22:40:58.900Z,102241.69
2019-04-30T22:43:26.922Z,102245.23
2019-04-30T22:45:59.597Z,102244.25
2019-04-30T22:48:28.716Z,102243.73
2019-04-30T22:50:56.915Z,102242.02
2019-04-30T22:53:24.644Z,102248.28
2019-04-30T22:55:52.411Z,102246.55
2019-04-30T22:58:20.226Z,102245.93
2019-04-30T23:00:48.201Z,102242.89
2019-04-30T23:03:26.086Z,102228.67
2019-04-30T23:05:54.064Z,102234.95
2019-04-30T23:08:21.774Z,102233.55
2019-04-30T23:10:49.931Z,102232.64
2019-04-30T23:13:18.040Z,102230.23
2019-04-30T23:15:47.334Z,102222.14
2019-04-30T23:18:15.261Z,102222.16
2019-04-30T23:20:43.002Z,102220.30
2019-04-30T23:23:11.016Z,102218.73
2019-04-30T23:25:38.977Z,102218.42
2019-04-30T23:28:06.722Z,102219.63
2019-04-30T23:30:34.441Z,102220.16
2019-04-30T23:33:02.384Z,102214.34
2019-04-30T23:35:30.344Z,102214.81
2019-04-30T23:38:03.372Z,102210.94
2019-04-30T23:40:47.011Z,102214.86
2019-04-30T23:43:16.399Z,102209.63
2019-04-30T23:45:44.143Z,102211.80
2019-04-30T23:48:11.951Z,102206.35
2019-04-30T23:50:39.910Z,102208.08
2019-04-30T23:53:07.630Z,102200.88
2019-04-30T23:55:35.364Z,102207.38
2019-04-30T23:58:03.183Z,102197.47
